createdAt,value
2023-07-11T00:01:03.363Z,6.78
2023-07-11T00:03:30.446Z,5.55
2023-07-11T00:06:06.630Z,6.25
2023-07-11T00:08:34.393Z,6.32
2023-07-11T00:11:01.285Z,6.38
2023-07-11T00:13:28.303Z,6.57
2023-07-11T00:15:57.841Z,5.68
2023-07-11T00:18:24.934Z,6.35
2023-07-11T00:20:51.884Z,6.30
2023-07-11T00:23:19.211Z,6.20
2023-07-11T00:25:46.158Z,6.03
2023-07-11T00:28:13.568Z,6.00
2023-07-11T00:30:43.239Z,5.93
2023-07-11T00:33:10.763Z,6.55
2023-07-11T00:35:39.248Z,5.70
2023-07-11T00:38:07.518Z,5.53
2023-07-11T00:40:39.749Z,5.60
2023-07-11T00:43:09.665Z,5.88
2023-07-11T00:46:11.989Z,5.93
2023-07-11T00:48:42.371Z,6.30
2023-07-11T00:51:15.403Z,5.57
2023-07-11T00:53:43.933Z,6.18
2023-07-11T00:56:13.593Z,5.78
2023-07-11T00:58:43.972Z,5.82
2023-07-11T01:01:12.537Z,6.38
2023-07-11T01:03:39.911Z,5.97
2023-07-11T01:06:13.742Z,5.95
2023-07-11T01:08:41.557Z,6.15
2023-07-11T01:11:09.443Z,5.45
2023-07-11T01:13:36.896Z,6.30
2023-07-11T01:16:04.952Z,6.25
2023-07-11T01:18:32.525Z,5.75
2023-07-11T01:20:59.678Z,5.82
2023-07-11T01:23:27.448Z,7.05
2023-07-11T01:26:07.043Z,6.90
2023-07-11T01:28:34.642Z,6.53
2023-07-11T01:31:01.544Z,6.72
2023-07-11T01:33:29.420Z,6.13
2023-07-11T01:35:56.678Z,6.18
2023-07-11T01:38:25.601Z,5.95
2023-07-11T01:40:52.779Z,5.85
2023-07-11T01:43:21.215Z,6.05
2023-07-11T01:45:48.149Z,5.57
2023-07-11T01:48:15.422Z,5.03
2023-07-11T01:50:42.426Z,5.15
2023-07-11T01:53:09.374Z,5.75
2023-07-11T01:55:36.455Z,5.68
2023-07-11T01:58:03.421Z,5.68
2023-07-11T02:00:30.377Z,5.95
2023-07-11T02:03:00.595Z,5.80
2023-07-11T02:05:27.748Z,6.05
2023-07-11T02:07:54.655Z,5.63
2023-07-11T02:10:21.785Z,6.03
2023-07-11T02:12:48.664Z,7.18
2023-07-11T02:15:15.758Z,6.47
2023-07-11T02:17:43.219Z,6.97
2023-07-11T02:20:10.995Z,6.00
2023-07-11T02:22:40.264Z,6.50
2023-07-11T02:25:08.048Z,6.57
2023-07-11T02:27:34.917Z,6.38
2023-07-11T02:30:01.941Z,6.30
2023-07-11T02:32:28.871Z,5.57
2023-07-11T02:34:55.842Z,6.15
2023-07-11T02:37:22.803Z,6.72
2023-07-11T02:39:49.925Z,5.90
2023-07-11T02:42:16.844Z,6.10
2023-07-11T02:44:43.823Z,7.28
2023-07-11T02:47:12.398Z,6.03
2023-07-11T02:49:39.619Z,6.43
2023-07-11T02:52:11.977Z,6.65
2023-07-11T02:54:39.369Z,7.57
2023-07-11T02:57:08.049Z,7.47
2023-07-11T02:59:35.707Z,7.30
2023-07-11T03:02:02.871Z,7.53
2023-07-11T03:04:30.926Z,6.93
2023-07-11T03:06:58.257Z,7.47
2023-07-11T03:09:26.632Z,7.47
2023-07-11T03:11:53.975Z,7.65
2023-07-11T03:14:21.545Z,7.78
2023-07-11T03:16:54.721Z,7.30
2023-07-11T03:19:22.085Z,7.40
2023-07-11T03:21:49.941Z,7.53
2023-07-11T03:24:17.594Z,7.30
2023-07-11T03:26:47.026Z,6.70
2023-07-11T03:29:15.260Z,7.35
2023-07-11T03:31:43.229Z,7.03
2023-07-11T03:34:10.506Z,7.57
2023-07-11T03:36:37.605Z,7.07
2023-07-11T03:39:05.104Z,7.32
2023-07-11T03:41:32.134Z,7.00
2023-07-11T03:43:59.358Z,6.63
2023-07-11T03:46:26.342Z,7.40
2023-07-11T03:49:00.768Z,6.72
2023-07-11T03:51:28.501Z,7.22
2023-07-11T03:53:55.454Z,6.72
2023-07-11T03:56:22.516Z,7.07
2023-07-11T03:58:49.669Z,6.35
2023-07-11T04:01:17.173Z,6.40
2023-07-11T04:03:44.647Z,6.82
2023-07-11T04:06:13.291Z,6.82
2023-07-11T04:08:40.672Z,7.32
2023-07-11T04:11:07.695Z,6.97
2023-07-11T04:13:34.633Z,7.70
2023-07-11T04:16:01.631Z,6.93
2023-07-11T04:18:28.503Z,6.80
2023-07-11T04:20:55.515Z,7.65
2023-07-11T04:23:22.662Z,6.70
2023-07-11T04:25:49.586Z,6.03
2023-07-11T04:28:18.122Z,6.05
2023-07-11T04:30:45.141Z,6.32
2023-07-11T04:33:12.096Z,6.43
2023-07-11T04:35:40.290Z,6.38
2023-07-11T04:38:07.300Z,6.35
2023-07-11T04:40:34.266Z,5.93
2023-07-11T04:43:01.220Z,5.65
2023-07-11T04:45:28.478Z,5.95
2023-07-11T04:47:55.439Z,4.75
2023-07-11T04:50:22.449Z,4.45
2023-07-11T04:52:50.914Z,4.72
2023-07-11T04:55:17.897Z,5.80
2023-07-11T04:57:45.260Z,5.00
2023-07-11T05:00:12.962Z,4.75
2023-07-11T05:02:40.024Z,4.38
2023-07-11T05:05:07.505Z,4.50
2023-07-11T05:07:34.623Z,5.38
2023-07-11T05:10:01.980Z,4.90
2023-07-11T05:12:29.433Z,4.60
2023-07-11T05:14:56.461Z,4.50
2023-07-11T05:17:23.513Z,4.60
2023-07-11T05:19:50.637Z,4.18
2023-07-11T05:22:17.603Z,4.50
2023-07-11T05:24:44.611Z,4.03
2023-07-11T05:27:11.844Z,3.50
2023-07-11T05:29:39.135Z,3.65
2023-07-11T05:32:08.973Z,4.00
2023-07-11T05:34:37.128Z,3.35
2023-07-11T05:37:05.075Z,3.33
2023-07-11T05:39:32.132Z,3.90
2023-07-11T05:41:59.226Z,3.60
2023-07-11T05:44:26.486Z,3.92
2023-07-11T05:46:53.667Z,3.50
2023-07-11T05:49:20.911Z,3.97
2023-07-11T05:51:47.928Z,4.03
2023-07-11T05:54:15.020Z,4.00
2023-07-11T05:56:42.424Z,4.03
2023-07-11T05:59:09.391Z,3.60
2023-07-11T06:01:36.378Z,4.03
2023-07-11T06:04:06.454Z,4.53
2023-07-11T06:06:36.937Z,3.90
2023-07-11T06:09:04.116Z,3.60
2023-07-11T06:11:31.041Z,4.00
2023-07-11T06:13:58.041Z,3.47
2023-07-11T06:16:25.289Z,4.10
2023-07-11T06:18:54.077Z,4.00
2023-07-11T06:21:21.080Z,4.05
2023-07-11T06:23:48.703Z,3.47
2023-07-11T06:26:16.236Z,3.42
2023-07-11T06:28:44.258Z,3.83
2023-07-11T06:31:13.521Z,3.95
2023-07-11T06:33:40.993Z,3.70
2023-07-11T06:36:09.272Z,3.72
2023-07-11T06:38:36.835Z,3.58
2023-07-11T06:41:04.304Z,3.67
2023-07-11T06:43:31.512Z,3.70
2023-07-11T06:46:00.722Z,3.92
2023-07-11T06:48:30.506Z,3.58
2023-07-11T06:51:00.783Z,3.47
2023-07-11T06:53:30.539Z,3.60
2023-07-11T06:55:58.374Z,3.70
2023-07-11T06:58:25.557Z,2.85
2023-07-11T07:01:02.884Z,3.15
2023-07-11T07:03:31.662Z,2.80
2023-07-11T07:06:02.579Z,2.90
2023-07-11T07:08:29.764Z,3.08
2023-07-11T07:10:56.640Z,2.80
2023-07-11T07:13:25.173Z,2.90
2023-07-11T07:15:57.677Z,2.78
2023-07-11T07:18:25.899Z,3.33
2023-07-11T07:20:58.049Z,3.20
2023-07-11T07:23:27.183Z,2.70
2023-07-11T07:25:57.737Z,2.67
2023-07-11T07:28:25.616Z,3.38
2023-07-11T07:30:54.390Z,2.70
2023-07-11T07:33:26.158Z,3.10
2023-07-11T07:36:04.057Z,2.92
2023-07-11T07:38:31.388Z,2.83
2023-07-11T07:41:00.352Z,2.90
2023-07-11T07:43:29.177Z,3.25
2023-07-11T07:45:58.165Z,3.08
2023-07-11T07:48:26.010Z,2.95
2023-07-11T07:50:54.224Z,2.55
2023-07-11T07:53:21.186Z,2.30
2023-07-11T07:55:48.062Z,2.40
2023-07-11T07:58:24.064Z,2.75
2023-07-11T08:00:57.693Z,2.88
2023-07-11T08:03:24.764Z,2.65
2023-07-11T08:06:05.866Z,2.65
2023-07-11T08:08:41.154Z,2.50
2023-07-11T08:11:09.796Z,3.17
2023-07-11T08:13:52.909Z,2.30
2023-07-11T08:16:31.481Z,2.53
2023-07-11T08:18:59.826Z,2.65
2023-07-11T08:21:27.485Z,2.55
2023-07-11T08:23:54.559Z,2.30
2023-07-11T08:26:23.440Z,2.72
2023-07-11T08:28:51.550Z,2.53
2023-07-11T08:31:18.665Z,2.40
2023-07-11T08:33:45.867Z,2.80
2023-07-11T08:36:13.163Z,2.67
2023-07-11T08:38:40.161Z,2.80
2023-07-11T08:41:33.415Z,1.77
2023-07-11T08:44:05.985Z,2.42
2023-07-11T08:46:42.188Z,2.45
2023-07-11T08:49:17.616Z,1.95
2023-07-11T08:54:36.565Z,1.77
2023-07-11T08:57:03.979Z,1.90
2023-07-11T08:59:47.698Z,1.92
2023-07-11T09:02:24.952Z,2.10
2023-07-11T09:04:54.358Z,2.03
2023-07-11T09:07:45.636Z,2.20
2023-07-11T09:10:20.385Z,1.90
2023-07-11T09:13:15.663Z,2.05
2023-07-11T09:15:56.839Z,2.20
2023-07-11T09:18:56.758Z,1.90
2023-07-11T09:21:41.831Z,1.80
2023-07-11T09:24:21.438Z,1.98
2023-07-11T09:26:51.457Z,1.77
2023-07-11T09:29:19.151Z,1.90
2023-07-11T09:32:00.799Z,2.42
2023-07-11T09:34:37.832Z,1.95
2023-07-11T09:37:25.261Z,1.83
2023-07-11T09:40:02.826Z,1.70
2023-07-11T09:42:50.157Z,1.70
2023-07-11T09:45:20.664Z,1.98
2023-07-11T09:47:59.930Z,1.60
2023-07-11T09:50:39.742Z,1.88
2023-07-11T09:53:15.433Z,1.90
2023-07-11T09:55:42.631Z,2.00
2023-07-11T09:58:18.710Z,1.50
2023-07-11T10:00:53.671Z,2.25
2023-07-11T10:03:22.636Z,2.53
2023-07-11T10:05:53.223Z,2.35
2023-07-11T10:08:50.341Z,2.50
2023-07-11T10:11:17.407Z,2.50
2023-07-11T10:13:46.670Z,2.50
2023-07-11T10:16:21.665Z,2.45
2023-07-11T10:18:48.666Z,2.58
2023-07-11T10:21:31.705Z,2.10
2023-07-11T10:24:02.879Z,2.50
2023-07-11T10:26:32.113Z,2.17
2023-07-11T10:29:15.728Z,1.80
2023-07-11T10:31:59.413Z,2.30
2023-07-11T10:34:35.415Z,2.30
2023-07-11T10:37:14.833Z,2.45
2023-07-11T10:39:52.648Z,2.53
2023-07-11T10:42:25.740Z,2.47
2023-07-11T10:45:22.049Z,2.95
2023-07-11T10:48:15.406Z,2.50
2023-07-11T10:50:58.604Z,2.92
2023-07-11T10:53:29.441Z,2.88
2023-07-11T10:56:23.240Z,2.60
2023-07-11T10:58:50.834Z,2.90
2023-07-11T11:01:48.080Z,2.42
2023-07-11T11:04:41.649Z,2.60
2023-07-11T11:07:25.464Z,2.75
2023-07-11T11:10:06.531Z,2.50
2023-07-11T11:13:10.307Z,2.92
2023-07-11T11:15:52.433Z,2.55
2023-07-11T11:18:36.606Z,2.60
2023-07-11T11:24:18.474Z,2.58
2023-07-11T11:27:01.746Z,2.47
2023-07-11T11:29:34.598Z,2.67
2023-07-11T11:32:26.306Z,2.67
2023-07-11T11:35:24.127Z,3.13
2023-07-11T11:38:18.457Z,2.65
2023-07-11T11:40:50.753Z,2.30
2023-07-11T11:43:22.922Z,2.25
2023-07-11T11:51:12.838Z,2.40
2023-07-11T11:53:48.079Z,2.85
2023-07-11T11:56:25.080Z,2.28
2023-07-11T11:59:02.044Z,2.53
2023-07-11T12:01:36.885Z,2.38
2023-07-11T12:04:26.259Z,2.40
2023-07-11T12:06:57.875Z,2.33
2023-07-11T12:10:10.062Z,2.00
2023-07-11T12:12:37.105Z,2.53
2023-07-11T12:15:12.877Z,1.90
2023-07-11T12:17:40.183Z,2.40
2023-07-11T12:20:07.353Z,1.88
2023-07-11T12:23:18.168Z,2.40
2023-07-11T12:26:11.804Z,2.40
2023-07-11T12:28:39.349Z,2.10
2023-07-11T12:31:23.450Z,2.38
2023-07-11T12:34:04.559Z,2.13
2023-07-11T12:36:34.418Z,2.13
2023-07-11T12:39:08.705Z,2.60
2023-07-11T12:41:46.550Z,2.00
2023-07-11T12:44:16.881Z,2.35
2023-07-11T12:46:46.794Z,2.17
2023-07-11T12:49:29.857Z,1.75
2023-07-11T12:52:13.512Z,2.05
2023-07-11T12:54:42.000Z,1.83
2023-07-11T12:57:18.867Z,2.05
2023-07-11T12:59:46.746Z,2.45
2023-07-11T13:02:17.412Z,2.33
2023-07-11T13:04:51.590Z,2.03
2023-07-11T13:07:26.432Z,2.55
2023-07-11T13:09:57.898Z,2.03
2023-07-11T13:12:32.327Z,2.30
2023-07-11T13:15:16.162Z,1.80
2023-07-11T13:17:45.078Z,1.85
2023-07-11T13:20:31.056Z,1.80
2023-07-11T13:22:58.293Z,1.85
2023-07-11T13:25:34.507Z,1.77
2023-07-11T13:28:01.877Z,2.28
2023-07-11T13:30:36.929Z,1.73
2023-07-11T13:33:23.958Z,1.90
2023-07-11T13:36:07.830Z,2.17
2023-07-11T13:38:57.458Z,2.20
2023-07-11T13:41:32.103Z,2.58
2023-07-11T13:44:05.632Z,1.92
2023-07-11T13:46:33.163Z,2.28
2023-07-11T13:49:17.357Z,2.00
2023-07-11T13:51:44.484Z,2.05
2023-07-11T13:54:14.472Z,2.45
2023-07-11T13:56:41.492Z,2.25
2023-07-11T13:59:09.631Z,2.70
2023-07-11T14:01:41.645Z,2.45
2023-07-11T14:04:19.129Z,3.13
2023-07-11T14:06:46.601Z,2.75
2023-07-11T14:09:14.467Z,2.65
2023-07-11T14:11:46.770Z,2.70
2023-07-11T14:14:24.998Z,2.53
2023-07-11T14:17:03.281Z,2.30
2023-07-11T14:19:34.527Z,2.70
2023-07-11T14:22:07.086Z,2.97
2023-07-11T14:24:42.222Z,2.63
2023-07-11T14:27:16.331Z,3.10
2023-07-11T14:29:43.401Z,2.83
2023-07-11T14:32:20.863Z,2.40
2023-07-11T14:34:47.881Z,3.42
2023-07-11T14:37:16.889Z,3.13
2023-07-11T14:39:44.871Z,2.70
2023-07-11T14:42:27.502Z,2.92
2023-07-11T14:44:56.076Z,2.85
2023-07-11T14:47:23.741Z,2.85
2023-07-11T14:49:50.932Z,3.20
2023-07-11T14:52:20.795Z,2.95
2023-07-11T14:56:58.101Z,2.60
2023-07-11T15:00:06.341Z,2.70
2023-07-11T15:02:34.840Z,2.60
2023-07-11T15:10:09.215Z,2.83
2023-07-11T15:15:25.458Z,3.35
2023-07-11T15:17:53.290Z,3.42
2023-07-11T15:20:23.023Z,2.83
2023-07-11T15:22:54.124Z,3.75
2023-07-11T15:25:34.202Z,3.55
2023-07-11T15:28:02.208Z,3.08
2023-07-11T15:30:30.532Z,3.83
2023-07-11T15:32:58.045Z,3.50
2023-07-11T15:35:26.903Z,2.97
2023-07-11T15:37:54.355Z,3.88
2023-07-11T15:40:27.534Z,3.80
2023-07-11T15:42:55.226Z,2.78
2023-07-11T15:45:26.434Z,3.40
2023-07-11T15:47:54.938Z,3.25
2023-07-11T15:50:27.906Z,2.78
2023-07-11T15:52:55.873Z,3.50
2023-07-11T15:55:28.269Z,2.85
2023-07-11T15:57:56.697Z,3.17
2023-07-11T16:00:35.099Z,2.83
2023-07-11T16:03:02.450Z,2.92
2023-07-11T16:05:35.797Z,2.90
2023-07-11T16:08:03.502Z,3.20
2023-07-11T16:10:33.357Z,3.40
2023-07-11T16:13:02.068Z,16.85
2023-07-11T16:15:32.333Z,8.60
2023-07-11T16:17:59.769Z,5.30
2023-07-11T16:20:29.830Z,7.75
2023-07-11T16:22:57.096Z,2.95
2023-07-11T16:25:24.977Z,2.35
2023-07-11T16:27:55.648Z,2.97
2023-07-11T16:30:24.129Z,2.70
2023-07-11T16:32:52.466Z,2.53
2023-07-11T16:35:23.898Z,3.03
2023-07-11T16:37:51.335Z,2.55
2023-07-11T16:40:23.807Z,3.00
2023-07-11T16:42:54.583Z,2.38
2023-07-11T16:45:25.091Z,2.67
2023-07-11T16:47:53.126Z,3.53
2023-07-11T16:50:25.501Z,2.33
2023-07-11T16:52:53.362Z,2.60
2023-07-11T16:55:20.281Z,3.15
2023-07-11T16:57:47.530Z,3.03
2023-07-11T17:00:23.337Z,2.53
2023-07-11T17:02:52.014Z,2.75
2023-07-11T17:05:20.236Z,2.60
2023-07-11T17:07:48.716Z,2.97
2023-07-11T17:10:18.384Z,2.53
2023-07-11T17:12:45.472Z,3.10
2023-07-11T17:15:15.754Z,2.35
2023-07-11T17:17:43.016Z,2.97
2023-07-11T17:20:23.996Z,2.50
2023-07-11T17:22:51.445Z,2.75
2023-07-11T17:25:19.422Z,2.38
2023-07-11T17:27:51.138Z,1.88
2023-07-11T17:30:20.938Z,2.55
2023-07-11T17:32:48.292Z,2.25
2023-07-11T17:35:16.589Z,2.30
2023-07-11T17:37:45.309Z,2.28
2023-07-11T17:40:24.734Z,2.33
2023-07-11T17:42:53.550Z,2.67
2023-07-11T17:45:48.251Z,2.53
2023-07-11T17:48:22.976Z,2.30
2023-07-11T17:50:55.045Z,3.15
2023-07-11T17:53:22.977Z,2.60
2023-07-11T17:55:50.769Z,2.60
2023-07-11T17:58:24.068Z,2.35
2023-07-11T18:00:52.634Z,2.42
2023-07-11T18:03:20.768Z,2.30
2023-07-11T18:05:48.627Z,2.58
2023-07-11T18:08:17.841Z,2.38
2023-07-11T18:10:46.081Z,2.05
2023-07-11T18:13:14.188Z,1.73
2023-07-11T18:15:44.463Z,2.50
2023-07-11T18:18:27.631Z,2.03
2023-07-11T18:20:56.948Z,2.03
2023-07-11T18:23:24.184Z,1.83
2023-07-11T18:25:55.720Z,2.17
2023-07-11T18:28:23.717Z,2.30
2023-07-11T18:30:51.884Z,2.30
2023-07-11T18:33:20.487Z,1.63
2023-07-11T18:35:49.544Z,2.85
2023-07-11T18:38:21.396Z,2.33
2023-07-11T18:40:49.349Z,2.00
2023-07-11T18:43:16.316Z,1.88
2023-07-11T18:45:46.580Z,2.30
2023-07-11T18:48:14.624Z,1.90
2023-07-11T18:50:43.095Z,1.55
2023-07-11T18:53:10.194Z,1.90
2023-07-11T18:55:37.219Z,1.80
2023-07-11T18:58:06.152Z,1.75
2023-07-11T19:00:36.361Z,1.83
2023-07-11T19:03:06.731Z,2.10
2023-07-11T19:05:34.301Z,2.10
2023-07-11T19:08:01.569Z,2.22
2023-07-11T19:10:32.276Z,2.20
2023-07-11T19:12:59.295Z,2.40
2023-07-11T19:15:28.628Z,2.20
2023-07-11T19:18:03.520Z,2.45
2023-07-11T19:20:31.604Z,2.25
2023-07-11T19:23:00.960Z,2.30
2023-07-11T19:25:38.427Z,2.05
2023-07-11T19:28:08.516Z,2.35
2023-07-11T19:30:37.483Z,2.40
2023-07-11T19:33:05.563Z,2.47
2023-07-11T19:35:35.069Z,2.47
2023-07-11T19:38:13.408Z,2.10
2023-07-11T19:40:40.470Z,2.60
2023-07-11T19:43:07.415Z,2.70
2023-07-11T19:45:46.652Z,2.20
2023-07-11T19:48:16.616Z,2.03
2023-07-11T19:50:52.215Z,2.13
2023-07-11T19:53:21.873Z,1.70
2023-07-11T19:55:51.532Z,2.30
2023-07-11T19:58:23.604Z,1.98
2023-07-11T20:00:55.332Z,2.22
2023-07-11T20:03:25.587Z,1.90
2023-07-11T20:05:53.496Z,2.03
2023-07-11T20:08:27.227Z,1.83
2023-07-11T20:10:57.650Z,2.47
2023-07-11T20:13:26.255Z,2.17
2023-07-11T20:16:01.566Z,2.10
2023-07-11T20:21:04.323Z,2.03
2023-07-11T20:23:32.033Z,2.22
2023-07-11T20:26:13.202Z,2.70
2023-07-11T20:28:40.284Z,2.33
2023-07-11T20:31:12.142Z,2.40
2023-07-11T20:33:39.710Z,2.33
2023-07-11T20:36:29.048Z,2.50
2023-07-11T20:38:57.977Z,2.40
2023-07-11T20:41:25.913Z,2.50
2023-07-11T20:43:52.924Z,2.60
2023-07-11T20:46:22.772Z,2.50
2023-07-11T20:48:50.406Z,2.50
2023-07-11T20:51:19.287Z,2.53
2023-07-11T20:53:46.306Z,2.42
2023-07-11T20:56:19.423Z,2.83
2023-07-11T20:58:46.600Z,3.00
2023-07-11T21:01:20.113Z,2.90
2023-07-11T21:03:47.623Z,2.47
2023-07-11T21:06:34.811Z,2.60
2023-07-11T21:09:03.787Z,2.60
2023-07-11T21:11:30.829Z,2.50
2023-07-11T21:13:57.993Z,2.28
2023-07-11T21:16:28.196Z,2.95
2023-07-11T21:19:00.576Z,2.55
2023-07-11T21:21:27.777Z,2.70
2023-07-11T21:23:54.693Z,2.00
2023-07-11T21:26:26.304Z,2.72
2023-07-11T21:28:54.689Z,2.28
2023-07-11T21:31:22.300Z,2.83
2023-07-11T21:33:49.998Z,3.22
2023-07-11T21:36:23.279Z,3.00
2023-07-11T21:38:51.481Z,3.22
2023-07-11T21:41:21.457Z,3.17
2023-07-11T21:43:48.634Z,2.45
2023-07-11T21:46:18.099Z,2.75
2023-07-11T21:48:45.175Z,2.53
2023-07-11T21:51:14.961Z,2.85
2023-07-11T21:53:42.106Z,3.03
2023-07-11T21:56:17.255Z,2.53
2023-07-11T21:58:44.160Z,3.00
2023-07-11T22:01:11.388Z,2.70
2023-07-11T22:03:38.854Z,2.40
2023-07-11T22:06:21.869Z,3.10
2023-07-11T22:08:48.952Z,3.10
2023-07-11T22:11:17.560Z,3.22
2023-07-11T22:13:47.307Z,3.38
2023-07-11T22:16:32.640Z,3.38
2023-07-11T22:19:00.058Z,2.90
2023-07-11T22:21:27.185Z,2.70
2023-07-11T22:23:54.951Z,2.83
2023-07-11T22:26:24.082Z,2.72
2023-07-11T22:28:51.566Z,2.60
2023-07-11T22:31:19.497Z,2.80
2023-07-11T22:33:46.798Z,2.63
2023-07-11T22:36:14.952Z,3.20
2023-07-11T22:38:42.256Z,3.80
2023-07-11T22:41:09.873Z,2.97
2023-07-11T22:43:37.474Z,3.35
2023-07-11T22:46:22.068Z,3.42
2023-07-11T22:48:49.838Z,3.05
2023-07-11T22:51:18.429Z,3.20
2023-07-11T22:53:45.874Z,3.67
2023-07-11T22:56:24.460Z,3.67
2023-07-11T22:58:53.030Z,3.60
2023-07-11T23:01:21.772Z,3.60
2023-07-11T23:03:49.032Z,4.22
2023-07-11T23:06:23.348Z,4.40
2023-07-11T23:08:50.835Z,4.03
2023-07-11T23:11:18.339Z,3.92
2023-07-11T23:13:46.802Z,4.80
2023-07-11T23:16:29.606Z,3.88
2023-07-11T23:19:06.990Z,4.10
2023-07-11T23:21:34.639Z,4.43
2023-07-11T23:24:02.119Z,4.32
2023-07-11T23:26:29.624Z,4.15
2023-07-11T23:28:57.049Z,4.40
2023-07-11T23:31:25.234Z,3.95
2023-07-11T23:33:52.711Z,3.90
2023-07-11T23:36:22.597Z,3.85
2023-07-11T23:38:51.756Z,4.03
2023-07-11T23:41:18.991Z,4.40
2023-07-11T23:43:46.519Z,4.45
2023-07-11T23:46:33.596Z,3.80
2023-07-11T23:49:01.023Z,3.88
2023-07-11T23:51:29.444Z,4.43
2023-07-11T23:53:57.228Z,4.68
2023-07-11T23:56:33.296Z,3.53
2023-07-11T23:59:00.714Z,3.75
